createdAt,value
2023-03-11T00:00:33.607Z,971.20
2023-03-11T00:01:33.610Z,975.80
2023-03-11T00:02:33.500Z,1045.50
2023-03-11T00:03:33.606Z,988.40
2023-03-11T00:04:33.527Z,966.70
2023-03-11T00:05:33.714Z,977.10
2023-03-11T00:06:33.514Z,952.50
2023-03-11T00:07:33.513Z,962.60
2023-03-11T00:08:33.450Z,1008.10
2023-03-11T00:09:33.528Z,967.80
2023-03-11T00:10:33.488Z,978.10
2023-03-11T00:11:33.607Z,981.10
2023-03-11T00:12:33.513Z,991.10
2023-03-11T00:13:33.591Z,1035.80
2023-03-11T00:14:33.567Z,1041.50
2023-03-11T00:15:33.509Z,1061.30
2023-03-11T00:16:33.529Z,1073.50
2023-03-11T00:17:33.521Z,1062.90
2023-03-11T00:18:33.506Z,1111.30
2023-03-11T00:19:33.465Z,1096.20
2023-03-11T00:20:33.556Z,1058.00
2023-03-11T00:21:33.383Z,1041.60
2023-03-11T00:22:33.493Z,1028.00
2023-03-11T00:23:33.461Z,1027.20
2023-03-11T00:24:33.453Z,1014.30
2023-03-11T00:25:33.496Z,1063.70
2023-03-11T00:26:33.361Z,1053.40
2023-03-11T00:27:33.364Z,1049.10
2023-03-11T00:28:34.445Z,985.00
2023-03-11T00:29:34.314Z,1078.30
2023-03-11T00:30:33.345Z,1073.60
2023-03-11T00:31:33.467Z,1084.90
2023-03-11T00:32:33.407Z,1029.70
2023-03-11T00:33:33.383Z,1032.10
2023-03-11T00:34:33.371Z,1120.00
2023-03-11T00:35:33.466Z,1131.30
2023-03-11T00:36:34.443Z,1100.90
2023-03-11T00:37:33.371Z,1078.60
2023-03-11T00:38:33.361Z,1120.50
2023-03-11T00:39:33.371Z,1070.80
2023-03-11T00:40:33.254Z,1087.50
2023-03-11T00:41:33.332Z,1117.70
2023-03-11T00:42:33.784Z,1094.60
2023-03-11T00:43:33.334Z,1123.90
2023-03-11T00:44:33.250Z,1136.60
2023-03-11T00:45:34.308Z,1095.40
2023-03-11T00:46:33.254Z,1097.60
2023-03-11T00:47:33.350Z,1040.60
2023-03-11T00:48:33.154Z,1052.50
2023-03-11T00:49:33.185Z,1102.90
2023-03-11T00:50:33.188Z,1097.90
2023-03-11T00:51:34.251Z,1106.90
2023-03-11T00:52:34.207Z,1115.80
2023-03-11T00:53:33.151Z,1098.10
2023-03-11T00:54:33.249Z,1000.40
2023-03-11T00:55:33.229Z,1025.70
2023-03-11T00:56:33.250Z,1014.90
2023-03-11T00:57:33.280Z,1098.20
2023-03-11T00:58:33.260Z,1023.30
2023-03-11T00:59:33.255Z,1035.70
2023-03-11T01:00:33.198Z,1012.00
2023-03-11T01:01:33.266Z,984.90
2023-03-11T01:02:33.184Z,980.10
2023-03-11T01:03:33.249Z,1045.30
2023-03-11T01:04:33.182Z,1092.50
2023-03-11T01:05:33.194Z,1056.40
2023-03-11T01:06:44.900Z,985.90
2023-03-11T01:07:35.253Z,1059.60
2023-03-11T01:08:33.143Z,1072.60
2023-03-11T01:09:33.086Z,986.90
2023-03-11T01:10:33.061Z,1005.80
2023-03-11T01:11:33.050Z,1015.40
2023-03-11T01:12:33.030Z,1010.90
2023-03-11T01:13:33.045Z,992.60
2023-03-11T01:14:33.158Z,1006.20
2023-03-11T01:15:33.191Z,981.60
2023-03-11T01:16:33.094Z,991.40
2023-03-11T01:17:33.127Z,995.20
2023-03-11T01:18:33.075Z,996.70
2023-03-11T01:19:33.091Z,1008.60
2023-03-11T01:20:33.150Z,1018.30
2023-03-11T01:21:32.977Z,1027.90
2023-03-11T01:22:33.114Z,1036.30
2023-03-11T01:23:33.039Z,1013.80
2023-03-11T01:24:33.149Z,1018.70
2023-03-11T01:25:33.067Z,997.30
2023-03-11T01:26:33.034Z,1000.90
2023-03-11T01:27:33.045Z,1012.40
2023-03-11T01:28:33.038Z,999.10
2023-03-11T01:29:33.005Z,1003.40
2023-03-11T01:30:33.002Z,985.70
2023-03-11T01:31:33.081Z,985.70
2023-03-11T01:32:32.958Z,1023.50
2023-03-11T01:33:32.925Z,1036.30
2023-03-11T01:34:32.874Z,1064.20
2023-03-11T01:35:32.896Z,991.50
2023-03-11T01:36:32.979Z,1065.10
2023-03-11T01:37:32.991Z,1118.40
2023-03-11T01:38:32.882Z,1133.90
2023-03-11T01:39:32.933Z,1128.60
2023-03-11T01:40:32.989Z,1089.70
2023-03-11T01:41:32.925Z,1102.60
2023-03-11T01:42:32.926Z,1130.60
2023-03-11T01:43:32.953Z,1130.80
2023-03-11T01:44:32.869Z,1083.10
2023-03-11T01:45:32.952Z,1089.50
2023-03-11T01:46:32.939Z,1068.30
2023-03-11T01:47:33.252Z,1117.90
2023-03-11T01:48:32.896Z,1118.50
2023-03-11T01:49:32.968Z,1091.00
2023-03-11T01:50:32.872Z,1077.10
2023-03-11T01:51:32.894Z,1117.90
2023-03-11T01:52:32.829Z,1141.70
2023-03-11T01:53:32.882Z,1131.70
2023-03-11T01:54:32.829Z,1163.50
2023-03-11T01:55:48.990Z,1170.40
2023-03-11T01:56:32.786Z,1150.90
2023-03-11T01:57:32.752Z,1152.00
2023-03-11T01:58:32.763Z,1174.80
2023-03-11T01:59:32.711Z,1184.70
2023-03-11T02:00:32.715Z,1158.00
2023-03-11T02:01:32.789Z,1169.30
2023-03-11T02:02:32.746Z,1157.30
2023-03-11T02:03:32.716Z,1183.00
2023-03-11T02:04:32.708Z,1182.60
2023-03-11T02:05:32.667Z,1151.10
2023-03-11T02:06:32.679Z,1203.00
2023-03-11T02:07:32.772Z,1154.70
2023-03-11T02:08:32.764Z,1198.50
2023-03-11T02:09:32.752Z,1216.10
2023-03-11T02:10:32.732Z,1246.00
2023-03-11T02:11:32.813Z,1232.60
2023-03-11T02:12:32.767Z,1226.40
2023-03-11T02:13:32.702Z,1224.60
2023-03-11T02:14:32.694Z,1192.00
2023-03-11T02:15:32.745Z,1188.20
2023-03-11T02:16:33.768Z,1213.40
2023-03-11T02:17:32.700Z,1177.00
2023-03-11T02:18:32.652Z,1203.90
2023-03-11T02:19:32.668Z,1151.60
2023-03-11T02:20:32.711Z,1187.40
2023-03-11T02:21:32.563Z,1159.50
2023-03-11T02:22:32.656Z,1152.30
2023-03-11T02:23:32.651Z,1151.20
2023-03-11T02:24:32.651Z,1239.10
2023-03-11T02:25:32.633Z,1224.70
2023-03-11T02:26:32.697Z,1213.60
2023-03-11T02:27:32.556Z,1178.20
2023-03-11T02:28:32.534Z,1154.50
2023-03-11T02:29:32.518Z,1213.20
2023-03-11T02:30:32.509Z,1191.70
2023-03-11T02:31:32.536Z,1157.60
2023-03-11T02:32:32.528Z,1166.10
2023-03-11T02:33:32.498Z,1142.90
2023-03-11T02:34:32.485Z,1185.80
2023-03-11T02:35:32.502Z,1196.00
2023-03-11T02:36:32.454Z,1142.70
2023-03-11T02:37:32.515Z,1133.70
2023-03-11T02:38:32.471Z,1156.70
2023-03-11T02:39:32.541Z,1150.70
2023-03-11T02:40:32.543Z,1120.40
2023-03-11T02:41:32.537Z,1159.80
2023-03-11T02:42:32.605Z,1152.90
2023-03-11T02:43:32.516Z,1160.50
2023-03-11T02:44:32.560Z,1155.40
2023-03-11T02:45:32.534Z,1137.30
2023-03-11T02:46:32.523Z,1131.80
2023-03-11T02:47:32.479Z,1142.70
2023-03-11T02:48:32.727Z,1126.20
2023-03-11T02:49:32.443Z,1136.70
2023-03-11T02:50:32.464Z,1120.90
2023-03-11T02:51:32.479Z,1124.70
2023-03-11T02:52:32.446Z,1130.40
2023-03-11T02:53:32.431Z,1098.60
2023-03-11T02:54:32.393Z,1121.30
2023-03-11T02:55:32.351Z,1104.70
2023-03-11T02:56:32.443Z,1141.30
2023-03-11T02:57:32.356Z,1139.60
2023-03-11T02:58:32.302Z,1129.50
2023-03-11T02:59:32.392Z,1145.50
2023-03-11T03:00:32.333Z,1122.00
2023-03-11T03:01:33.304Z,1133.90
2023-03-11T03:02:32.261Z,1116.70
2023-03-11T03:03:32.413Z,1149.30
2023-03-11T03:04:32.471Z,1131.20
2023-03-11T03:05:32.375Z,1104.00
2023-03-11T03:06:32.357Z,1100.70
2023-03-11T03:07:32.301Z,1133.50
2023-03-11T03:08:32.373Z,1156.10
2023-03-11T03:09:32.350Z,1156.00
2023-03-11T03:10:32.366Z,1116.50
2023-03-11T03:11:32.321Z,1124.00
2023-03-11T03:12:32.329Z,1117.40
2023-03-11T03:13:32.301Z,1108.70
2023-03-11T03:14:32.307Z,1139.00
2023-03-11T03:15:32.357Z,1139.30
2023-03-11T03:16:32.312Z,1177.30
2023-03-11T03:17:32.305Z,1094.20
2023-03-11T03:18:32.188Z,1110.70
2023-03-11T03:19:32.672Z,1096.60
2023-03-11T03:20:32.206Z,1053.50
2023-03-11T03:21:32.203Z,1097.50
2023-03-11T03:22:32.157Z,1084.60
2023-03-11T03:23:32.270Z,1132.20
2023-03-11T03:24:32.229Z,1121.10
2023-03-11T03:25:32.331Z,1137.60
2023-03-11T03:26:32.289Z,1131.70
2023-03-11T03:27:32.178Z,1118.60
2023-03-11T03:28:32.217Z,1118.60
2023-03-11T03:29:32.206Z,1117.40
2023-03-11T03:30:32.176Z,1102.00
2023-03-11T03:31:32.197Z,1074.50
2023-03-11T03:32:32.232Z,1101.10
2023-03-11T03:33:32.172Z,1103.50
2023-03-11T03:34:32.172Z,1084.70
2023-03-11T03:35:32.196Z,1153.90
2023-03-11T03:36:32.158Z,1135.10
2023-03-11T03:37:32.243Z,1118.70
2023-03-11T03:38:32.144Z,1113.30
2023-03-11T03:39:32.094Z,1150.10
2023-03-11T03:40:32.075Z,1141.90
2023-03-11T03:41:32.045Z,1079.10
2023-03-11T03:42:32.036Z,1124.20
2023-03-11T03:43:32.037Z,1120.90
2023-03-11T03:44:32.113Z,1109.30
2023-03-11T03:45:32.066Z,1057.70
2023-03-11T03:46:31.994Z,1108.00
2023-03-11T03:47:32.092Z,1125.30
2023-03-11T03:48:32.404Z,1096.40
2023-03-11T03:49:32.129Z,1063.60
2023-03-11T03:50:32.122Z,1097.30
2023-03-11T03:51:32.072Z,1059.30
2023-03-11T03:52:32.085Z,1153.20
2023-03-11T03:53:32.045Z,1124.40
2023-03-11T03:54:32.131Z,1138.00
2023-03-11T03:55:32.048Z,1133.80
2023-03-11T03:56:32.049Z,1077.60
2023-03-11T03:57:32.042Z,1161.40
2023-03-11T03:58:32.025Z,1178.90
2023-03-11T03:59:32.066Z,1115.40
2023-03-11T04:00:32.827Z,1097.60
2023-03-11T04:01:32.015Z,1054.30
2023-03-11T04:02:32.053Z,1153.30
2023-03-11T04:03:31.955Z,1117.20
2023-03-11T04:04:31.903Z,1121.20
2023-03-11T04:05:31.949Z,1115.60
2023-03-11T04:06:31.830Z,1073.50
2023-03-11T04:07:31.883Z,1108.80
2023-03-11T04:08:31.857Z,1101.80
2023-03-11T04:09:31.913Z,1132.50
2023-03-11T04:10:31.935Z,1082.90
2023-03-11T04:11:31.958Z,1091.50
2023-03-11T04:12:31.892Z,1092.10
2023-03-11T04:13:31.973Z,1108.00
2023-03-11T04:14:31.881Z,1126.00
2023-03-11T04:15:31.873Z,1127.20
2023-03-11T04:16:32.044Z,1153.60
2023-03-11T04:17:31.883Z,1108.20
2023-03-11T04:18:31.894Z,1117.50
2023-03-11T04:19:31.907Z,1071.10
2023-03-11T04:20:31.875Z,1073.20
2023-03-11T04:21:31.814Z,1063.70
2023-03-11T04:22:31.901Z,1062.30
2023-03-11T04:23:31.839Z,1093.00
2023-03-11T04:24:31.789Z,1082.40
2023-03-11T04:25:32.348Z,1094.90
2023-03-11T04:26:31.878Z,1095.20
2023-03-11T04:27:31.826Z,1103.50
2023-03-11T04:28:31.826Z,1136.60
2023-03-11T04:29:31.838Z,1133.80
2023-03-11T04:30:31.846Z,1133.00
2023-03-11T04:31:31.814Z,1159.20
2023-03-11T04:32:31.846Z,1166.80
2023-03-11T04:33:31.699Z,1201.20
2023-03-11T04:34:31.686Z,1205.00
2023-03-11T04:35:31.809Z,1222.40
2023-03-11T04:36:31.703Z,1193.70
2023-03-11T04:37:31.680Z,1206.80
2023-03-11T04:38:31.683Z,1192.90
2023-03-11T04:39:31.729Z,1206.60
2023-03-11T04:40:31.747Z,1157.90
2023-03-11T04:41:31.749Z,1147.60
2023-03-11T04:42:31.770Z,1115.20
2023-03-11T04:43:31.718Z,1143.40
2023-03-11T04:44:31.685Z,1163.60
2023-03-11T04:45:31.729Z,1145.50
2023-03-11T04:46:31.720Z,1099.90
2023-03-11T04:47:31.715Z,1092.60
2023-03-11T04:48:31.725Z,1065.10
2023-03-11T04:49:31.653Z,1065.50
2023-03-11T04:50:31.738Z,1032.00
2023-03-11T04:51:31.671Z,1050.30
2023-03-11T04:52:31.651Z,1062.00
2023-03-11T04:53:32.061Z,1035.30
2023-03-11T04:54:31.623Z,1062.20
2023-03-11T04:55:31.532Z,1098.30
2023-03-11T04:56:31.573Z,1119.80
2023-03-11T04:57:31.523Z,1069.60
2023-03-11T04:58:31.546Z,1069.70
2023-03-11T04:59:31.590Z,1089.50
2023-03-11T05:00:31.502Z,1063.00
2023-03-11T05:01:31.554Z,1066.40
2023-03-11T05:02:31.526Z,1068.50
2023-03-11T05:03:31.597Z,1039.80
2023-03-11T05:04:31.571Z,1037.90
2023-03-11T05:05:31.502Z,1059.70
2023-03-11T05:06:31.582Z,1043.90
2023-03-11T05:07:31.577Z,1068.20
2023-03-11T05:08:31.517Z,1060.10
2023-03-11T05:09:31.600Z,1050.60
2023-03-11T05:10:32.172Z,1056.20
2023-03-11T05:11:32.522Z,1065.00
2023-03-11T05:12:31.533Z,1063.00
2023-03-11T05:13:31.519Z,1049.70
2023-03-11T05:14:31.515Z,1022.50
2023-03-11T05:15:31.558Z,1050.00
2023-03-11T05:16:31.544Z,1057.00
2023-03-11T05:17:31.500Z,1052.70
2023-03-11T05:18:31.473Z,1045.30
2023-03-11T05:19:31.518Z,1104.10
2023-03-11T05:20:31.544Z,1080.40
2023-03-11T05:21:31.413Z,1060.70
2023-03-11T05:22:31.383Z,1112.10
2023-03-11T05:23:31.343Z,1085.10
2023-03-11T05:24:31.503Z,1109.70
2023-03-11T05:25:31.363Z,1087.50
2023-03-11T05:26:31.456Z,1098.70
2023-03-11T05:27:31.360Z,1044.20
2023-03-11T05:28:31.492Z,1064.80
2023-03-11T05:29:31.386Z,1048.90
2023-03-11T05:30:31.395Z,1034.00
2023-03-11T05:31:31.571Z,1018.70
2023-03-11T05:32:31.485Z,1035.50
2023-03-11T05:33:31.422Z,1090.90
2023-03-11T05:34:31.383Z,1060.70
2023-03-11T05:35:31.401Z,1083.10
2023-03-11T05:36:31.424Z,1082.90
2023-03-11T05:37:31.441Z,1094.70
2023-03-11T05:38:31.365Z,1105.10
2023-03-11T05:39:31.354Z,1059.00
2023-03-11T05:40:31.364Z,1100.10
2023-03-11T05:41:31.362Z,1120.30
2023-03-11T05:42:31.387Z,1075.40
2023-03-11T05:43:31.233Z,1137.10
2023-03-11T05:44:31.249Z,1158.70
2023-03-11T05:45:31.355Z,1149.80
2023-03-11T05:46:31.277Z,1133.00
2023-03-11T05:47:31.212Z,1139.70
2023-03-11T05:48:31.342Z,1139.80
2023-03-11T05:49:31.348Z,1162.50
2023-03-11T05:50:31.276Z,1145.00
2023-03-11T05:51:32.266Z,1135.20
2023-03-11T05:52:31.259Z,1117.60
2023-03-11T05:53:31.445Z,1133.60
2023-03-11T05:54:31.266Z,1162.10
2023-03-11T05:55:31.235Z,1152.50
2023-03-11T05:56:31.263Z,1145.30
2023-03-11T05:57:31.241Z,1080.60
2023-03-11T05:58:31.273Z,1056.40
2023-03-11T05:59:31.256Z,1055.10
2023-03-11T06:00:31.196Z,1050.90
2023-03-11T06:01:31.208Z,1029.90
2023-03-11T06:02:31.102Z,1028.50
2023-03-11T06:03:31.106Z,1040.40
2023-03-11T06:04:31.293Z,1037.00
2023-03-11T06:05:31.085Z,1046.40
2023-03-11T06:06:31.073Z,1044.10
2023-03-11T06:07:31.100Z,1022.10
2023-03-11T06:08:31.097Z,1021.60
2023-03-11T06:09:38.252Z,1018.10
2023-03-11T06:10:31.087Z,1041.10
2023-03-11T06:11:31.162Z,1050.30
2023-03-11T06:12:31.181Z,1063.00
2023-03-11T06:13:31.124Z,1047.70
2023-03-11T06:14:31.168Z,1032.90
2023-03-11T06:15:52.183Z,1035.30
2023-03-11T06:16:31.092Z,1060.10
2023-03-11T06:17:31.133Z,1055.20
2023-03-11T06:18:31.117Z,1057.00
2023-03-11T06:19:31.078Z,1029.00
2023-03-11T06:21:17.398Z,1022.60
2023-03-11T06:21:31.006Z,1047.30
2023-03-11T06:22:31.006Z,1061.60
2023-03-11T06:23:31.087Z,1055.50
2023-03-11T06:24:31.047Z,1063.30
2023-03-11T06:25:31.006Z,1056.20
2023-03-11T06:26:30.993Z,1078.00
2023-03-11T06:27:30.952Z,1103.10
2023-03-11T06:28:51.544Z,1079.50
2023-03-11T06:29:30.915Z,1119.30
2023-03-11T06:30:31.000Z,1155.80
2023-03-11T06:31:30.999Z,1168.90
2023-03-11T06:32:30.947Z,1177.50
2023-03-11T06:33:30.990Z,1178.40
2023-03-11T06:34:31.011Z,1221.20
2023-03-11T06:35:30.941Z,1210.50
2023-03-11T06:36:31.996Z,1206.40
2023-03-11T06:37:31.024Z,1222.50
2023-03-11T06:38:30.902Z,1186.50
2023-03-11T06:39:31.045Z,1229.50
2023-03-11T06:40:30.958Z,1189.20
2023-03-11T06:41:30.856Z,1160.80
2023-03-11T06:42:30.970Z,1195.40
2023-03-11T06:43:30.921Z,1162.00
2023-03-11T06:44:30.817Z,1178.40
2023-03-11T06:45:30.949Z,1147.00
2023-03-11T06:46:30.914Z,1136.60
2023-03-11T06:47:30.898Z,1162.50
2023-03-11T06:48:30.946Z,1130.20
2023-03-11T06:49:30.917Z,1116.80
2023-03-11T06:50:30.879Z,1109.20
2023-03-11T06:51:30.845Z,1116.90
2023-03-11T06:52:30.873Z,1114.90
2023-03-11T06:53:30.926Z,1108.60
2023-03-11T06:54:30.875Z,1168.20
2023-03-11T06:55:30.855Z,1137.30
2023-03-11T06:56:30.762Z,1080.30
2023-03-11T06:57:30.809Z,1075.50
2023-03-11T06:58:31.023Z,1081.30
2023-03-11T06:59:30.715Z,1088.30
2023-03-11T07:00:30.824Z,1076.80
2023-03-11T07:01:30.825Z,1087.50
2023-03-11T07:02:30.713Z,1093.10
2023-03-11T07:03:30.659Z,1106.20
2023-03-11T07:04:30.758Z,1097.20
2023-03-11T07:05:30.690Z,1107.20
2023-03-11T07:06:30.763Z,1117.00
2023-03-11T07:07:30.786Z,1134.70
2023-03-11T07:08:30.648Z,1179.90
2023-03-11T07:09:30.852Z,1235.80
2023-03-11T07:10:30.822Z,1260.80
2023-03-11T07:11:30.657Z,1249.60
2023-03-11T07:12:30.763Z,1265.40
2023-03-11T07:13:30.717Z,1286.70
2023-03-11T07:14:31.696Z,1272.70
2023-03-11T07:15:30.714Z,1295.50
2023-03-11T07:16:30.767Z,1294.80
2023-03-11T07:17:30.624Z,1390.00
2023-03-11T07:18:30.700Z,1389.90
2023-03-11T07:19:30.700Z,1376.90
2023-03-11T07:20:30.787Z,1258.10
2023-03-11T07:21:30.584Z,1213.40
2023-03-11T07:22:30.675Z,1180.90
2023-03-11T07:23:30.758Z,1184.90
2023-03-11T07:24:30.684Z,1158.00
2023-03-11T07:25:30.750Z,1179.00
2023-03-11T07:26:30.645Z,1179.60
2023-03-11T07:27:30.598Z,1141.10
2023-03-11T07:28:30.555Z,1137.90
2023-03-11T07:29:30.535Z,1126.70
2023-03-11T07:30:30.573Z,1139.90
2023-03-11T07:31:30.657Z,1171.50
2023-03-11T07:32:30.658Z,1139.80
2023-03-11T07:33:32.604Z,1146.20
2023-03-11T07:34:30.493Z,1176.50
2023-03-11T07:35:30.557Z,1163.20
2023-03-11T07:36:30.605Z,1146.80
2023-03-11T07:37:30.580Z,1205.30
2023-03-11T07:38:30.506Z,1133.70
2023-03-11T07:39:30.553Z,1155.50
2023-03-11T07:40:30.646Z,1123.70
2023-03-11T07:41:30.444Z,1244.90
2023-03-11T07:42:30.765Z,1277.40
2023-03-11T07:43:30.498Z,1281.20
2023-03-11T07:44:31.682Z,1281.50
2023-03-11T07:45:30.714Z,1054.80
2023-03-11T07:46:31.057Z,1167.50
2023-03-11T07:47:30.580Z,1245.50
2023-03-11T07:48:30.532Z,1287.20
2023-03-11T07:49:30.794Z,1107.60
2023-03-11T07:50:30.474Z,1127.90
2023-03-11T07:51:30.398Z,1135.70
2023-03-11T07:52:30.561Z,1048.00
2023-03-11T07:53:30.474Z,1149.70
2023-03-11T07:54:30.577Z,1130.00
2023-03-11T07:55:30.356Z,1030.40
2023-03-11T07:56:30.420Z,1018.80
2023-03-11T07:57:30.521Z,1006.30
2023-03-11T07:58:31.029Z,1040.80
2023-03-11T07:59:30.635Z,1047.00
2023-03-11T08:00:30.362Z,1027.30
2023-03-11T08:01:30.532Z,1077.30
2023-03-11T08:02:30.761Z,1172.40
2023-03-11T08:03:30.471Z,1219.90
2023-03-11T08:04:30.494Z,1047.40
2023-03-11T08:05:31.418Z,1047.80
2023-03-11T08:06:30.364Z,992.40
2023-03-11T08:07:30.485Z,1021.40
2023-03-11T08:08:30.365Z,1036.40
2023-03-11T08:09:30.332Z,1056.40
2023-03-11T08:10:30.365Z,1048.30
2023-03-11T08:11:30.398Z,1066.90
2023-03-11T08:12:30.313Z,1054.30
2023-03-11T08:13:30.345Z,1092.60
2023-03-11T08:14:30.438Z,1052.90
2023-03-11T08:15:30.609Z,943.00
2023-03-11T08:16:30.934Z,924.40
2023-03-11T08:17:30.750Z,905.90
2023-03-11T08:18:30.340Z,886.50
2023-03-11T08:19:30.457Z,903.70
2023-03-11T08:20:30.487Z,907.30
2023-03-11T08:21:30.894Z,909.30
2023-03-11T08:22:30.853Z,944.80
2023-03-11T08:23:30.280Z,902.80
2023-03-11T08:24:30.276Z,1181.40
2023-03-11T08:25:30.286Z,996.30
2023-03-11T08:26:30.226Z,927.20
2023-03-11T08:27:30.286Z,911.50
2023-03-11T08:28:30.333Z,901.20
2023-03-11T08:29:30.430Z,904.00
2023-03-11T08:30:30.297Z,917.40
2023-03-11T08:32:01.876Z,878.50
2023-03-11T08:32:30.183Z,877.70
2023-03-11T08:33:30.275Z,958.40
2023-03-11T08:34:30.350Z,980.80
2023-03-11T08:51:06.647Z,1160.40
2023-03-11T08:52:07.908Z,364.10
2023-03-11T08:53:07.939Z,372.60
2023-03-11T09:02:55.093Z,362.40
2023-03-11T09:03:56.214Z,334.30
2023-03-11T09:04:56.160Z,399.10
2023-03-11T09:05:55.969Z,372.20
2023-03-11T09:12:14.616Z,335.30
2023-03-11T09:13:04.504Z,229.20
2023-03-11T09:22:41.849Z,294.90
2023-03-11T09:23:19.021Z,211.80
2023-03-11T09:24:21.100Z,153.40
2023-03-11T09:25:18.758Z,169.10
2023-03-11T09:26:18.737Z,184.90
2023-03-11T09:27:18.778Z,159.10
2023-03-11T09:28:18.726Z,149.20
2023-03-11T10:04:20.575Z,422.70
2023-03-11T10:05:21.977Z,500.60
2023-03-11T10:08:07.987Z,416.10
2023-03-11T10:21:23.828Z,505.90
2023-03-11T10:22:23.364Z,653.00
2023-03-11T10:23:23.783Z,604.30
2023-03-11T10:24:22.966Z,653.40
2023-03-11T10:25:23.332Z,683.10
2023-03-11T10:26:23.098Z,655.90
2023-03-11T10:27:22.991Z,542.30
2023-03-11T10:28:22.982Z,492.50
2023-03-11T10:29:22.985Z,490.80
2023-03-11T10:30:23.000Z,547.80
2023-03-11T10:31:23.125Z,524.10
2023-03-11T10:32:23.121Z,574.60
2023-03-11T10:33:23.042Z,566.00
2023-03-11T10:34:22.988Z,602.10
2023-03-11T10:35:23.080Z,623.20
2023-03-11T10:36:22.875Z,628.50
2023-03-11T10:37:23.137Z,581.50
2023-03-11T10:38:22.983Z,648.60
2023-03-11T10:39:22.826Z,739.60
2023-03-11T10:40:23.983Z,597.30
2023-03-11T10:41:23.822Z,612.30
2023-03-11T10:42:22.807Z,715.80
2023-03-11T10:43:22.992Z,725.40
2023-03-11T10:44:22.969Z,607.10
2023-03-11T10:45:23.886Z,557.40
2023-03-11T10:46:22.890Z,657.20
2023-03-11T10:47:23.023Z,608.30
2023-03-11T10:48:23.033Z,535.70
2023-03-11T10:49:22.865Z,605.20
2023-03-11T10:50:22.826Z,617.50
2023-03-11T10:51:23.012Z,632.70
2023-03-11T10:52:22.831Z,593.70
2023-03-11T10:53:22.765Z,633.90
2023-03-11T10:54:22.740Z,596.00
2023-03-11T10:55:22.764Z,600.00
2023-03-11T10:56:22.773Z,552.20
2023-03-11T10:57:22.708Z,579.70
2023-03-11T10:58:22.697Z,673.40
2023-03-11T10:59:22.712Z,618.60
2023-03-11T11:00:22.782Z,681.10
2023-03-11T11:01:22.832Z,611.00
2023-03-11T11:02:22.840Z,733.10
2023-03-11T11:03:22.772Z,689.80
2023-03-11T11:04:22.827Z,657.70
2023-03-11T11:05:23.299Z,618.50
2023-03-11T11:06:22.900Z,611.50
2023-03-11T11:07:22.767Z,621.60
2023-03-11T11:08:22.681Z,634.60
2023-03-11T11:09:24.060Z,646.50
2023-03-11T11:10:22.723Z,692.10
2023-03-11T11:11:22.743Z,690.40
2023-03-11T11:12:22.675Z,677.20
2023-03-11T11:13:22.590Z,585.90
2023-03-11T11:14:22.605Z,572.90
2023-03-11T11:15:22.569Z,536.00
2023-03-11T11:16:22.734Z,409.10
2023-03-11T11:17:22.576Z,344.80
2023-03-11T11:18:22.535Z,348.20
2023-03-11T11:19:22.541Z,350.70
2023-03-11T11:20:22.605Z,376.90
2023-03-11T11:21:22.692Z,380.60
2023-03-11T11:22:22.595Z,337.10
2023-03-11T11:23:23.607Z,328.20
2023-03-11T11:24:22.573Z,403.70
2023-03-11T11:25:22.592Z,432.30
2023-03-11T11:26:22.560Z,472.60
2023-03-11T11:27:22.645Z,577.50
2023-03-11T11:28:22.753Z,683.80
2023-03-11T11:29:22.698Z,748.20
2023-03-11T11:30:22.560Z,757.30
2023-03-11T11:31:22.631Z,716.90
2023-03-11T11:32:22.628Z,792.50
2023-03-11T11:33:22.616Z,718.20
2023-03-11T11:34:23.174Z,686.40
2023-03-11T11:35:23.535Z,764.50
2023-03-11T11:36:22.405Z,782.60
2023-03-11T11:37:22.461Z,725.30
2023-03-11T11:38:22.664Z,729.90
2023-03-11T11:39:22.464Z,751.50
2023-03-11T11:40:22.465Z,876.10
2023-03-11T11:41:22.381Z,706.70
2023-03-11T11:42:22.515Z,746.40
2023-03-11T11:43:22.468Z,791.80
2023-03-11T11:44:22.518Z,812.90
2023-03-11T11:45:22.491Z,787.50
2023-03-11T11:46:22.503Z,824.00
2023-03-11T11:47:22.527Z,795.50
2023-03-11T11:48:22.452Z,780.80
2023-03-11T11:49:22.501Z,727.80
2023-03-11T11:50:22.464Z,746.80
2023-03-11T11:51:22.507Z,686.80
2023-03-11T11:52:22.511Z,721.50
2023-03-11T11:53:22.559Z,695.80
2023-03-11T11:54:22.412Z,684.60
2023-03-11T11:55:22.413Z,639.50
2023-03-11T11:56:22.396Z,633.10
2023-03-11T11:57:22.362Z,643.00
2023-03-11T11:58:22.430Z,606.90
2023-03-11T11:59:22.363Z,602.80
2023-03-11T12:00:22.636Z,702.50
2023-03-11T12:01:22.287Z,718.90
2023-03-11T12:02:22.661Z,716.30
2023-03-11T12:03:22.462Z,624.70
2023-03-11T12:04:22.370Z,724.40
2023-03-11T12:05:22.461Z,758.60
2023-03-11T12:06:22.697Z,720.80
2023-03-11T12:07:22.421Z,779.40
2023-03-11T12:08:22.591Z,896.00
2023-03-11T12:09:22.406Z,874.20
2023-03-11T12:10:24.029Z,676.20
2023-03-11T12:11:23.580Z,661.30
2023-03-11T12:12:22.623Z,486.60
2023-03-11T12:13:22.422Z,266.90
2023-03-11T12:14:22.614Z,273.60
2023-03-11T12:15:22.793Z,274.00
2023-03-11T12:16:22.153Z,224.70
2023-03-11T12:17:22.284Z,200.50
2023-03-11T12:18:22.366Z,181.40
2023-03-11T12:19:22.344Z,211.90
2023-03-11T12:20:22.283Z,280.90
2023-03-11T12:21:22.112Z,217.70
2023-03-11T12:22:22.657Z,202.90
2023-03-11T12:23:22.241Z,211.90
2023-03-11T12:24:22.215Z,283.50
2023-03-11T12:25:22.491Z,280.80
2023-03-11T12:26:22.191Z,226.60
2023-03-11T12:27:22.199Z,220.10
2023-03-11T12:28:22.230Z,203.40
2023-03-11T12:29:27.144Z,213.60
2023-03-11T12:30:23.235Z,238.60
2023-03-11T12:31:22.259Z,214.00
2023-03-11T12:32:22.182Z,236.40
2023-03-11T12:33:22.224Z,195.10
2023-03-11T12:34:23.174Z,221.00
2023-03-11T12:35:22.336Z,341.40
2023-03-11T12:36:22.148Z,422.20
2023-03-11T12:37:22.125Z,573.70
2023-03-11T12:38:22.067Z,662.90
2023-03-11T12:39:22.170Z,765.70
2023-03-11T12:40:22.118Z,767.70
2023-03-11T12:41:22.172Z,711.40
2023-03-11T12:42:22.467Z,719.90
2023-03-11T12:43:22.199Z,730.40
2023-03-11T12:44:22.150Z,686.50
2023-03-11T12:45:22.041Z,700.10
2023-03-11T12:46:22.070Z,676.30
2023-03-11T12:47:22.053Z,647.00
2023-03-11T12:48:22.008Z,640.30
2023-03-11T12:49:22.000Z,635.20
2023-03-11T12:50:22.567Z,641.10
2023-03-11T12:51:22.022Z,647.60
2023-03-11T12:52:22.457Z,636.10
2023-03-11T12:53:22.324Z,661.00
2023-03-11T12:54:22.198Z,688.60
2023-03-11T12:55:28.109Z,689.50
2023-03-11T12:56:21.959Z,711.90
2023-03-11T12:57:22.020Z,681.80
2023-03-11T12:58:23.825Z,701.50
2023-03-11T12:59:22.880Z,675.40
2023-03-11T13:00:21.933Z,711.70
2023-03-11T13:01:22.368Z,701.90
2023-03-11T13:02:21.945Z,701.90
2023-03-11T13:03:21.974Z,659.60
2023-03-11T13:04:21.994Z,684.40
2023-03-11T13:05:22.276Z,631.90
2023-03-11T13:06:23.297Z,620.40
2023-03-11T13:07:21.928Z,639.60
2023-03-11T13:08:22.136Z,582.60
2023-03-11T13:09:22.047Z,614.90
2023-03-11T13:10:22.393Z,663.90
2023-03-11T13:11:22.277Z,654.10
2023-03-11T13:12:22.398Z,723.50
2023-03-11T13:13:22.353Z,635.20
2023-03-11T13:14:22.234Z,614.20
2023-03-11T13:15:22.446Z,583.70
2023-03-11T13:16:22.012Z,698.60
2023-03-11T13:17:22.274Z,672.60
2023-03-11T13:18:22.014Z,617.70
2023-03-11T13:19:22.405Z,693.10
2023-03-11T13:20:21.932Z,834.50
2023-03-11T13:21:22.390Z,795.00
2023-03-11T13:22:22.363Z,766.10
2023-03-11T13:23:21.772Z,755.40
2023-03-11T13:24:21.715Z,756.30
2023-03-11T13:25:21.918Z,743.10
2023-03-11T13:26:21.829Z,738.40
2023-03-11T13:27:22.175Z,640.00
2023-03-11T13:28:21.960Z,706.20
2023-03-11T13:29:22.097Z,650.00
2023-03-11T13:30:22.370Z,732.50
2023-03-11T13:31:22.229Z,695.20
2023-03-11T13:32:21.876Z,757.00
2023-03-11T13:33:21.691Z,705.50
2023-03-11T13:34:21.844Z,731.30
2023-03-11T13:35:23.038Z,726.80
2023-03-11T13:36:23.033Z,702.50
2023-03-11T13:37:21.740Z,745.60
2023-03-11T13:38:21.740Z,760.20
2023-03-11T13:39:21.954Z,760.10
2023-03-11T13:40:21.945Z,681.80